createdAt,value
2019-04-23T00:16:00.450Z,8.70
2019-04-23T00:36:12.788Z,8.40
2019-04-23T00:46:18.400Z,8.30
2019-04-23T01:06:28.840Z,8.10
2019-04-23T01:16:37.389Z,8.00
2019-04-23T01:26:57.547Z,7.90
2019-04-23T01:36:56.129Z,7.80
2019-04-23T01:47:07.769Z,7.70
2019-04-23T01:57:19.522Z,7.60
2019-04-23T02:07:29.702Z,7.50
2019-04-23T02:17:34.096Z,7.40
2019-04-23T02:27:46.704Z,7.30
2019-04-23T02:58:26.040Z,6.90
2019-04-23T03:08:36.332Z,7.00
2019-04-23T03:29:10.728Z,7.20
2019-04-23T03:39:19.168Z,7.40
2019-04-23T03:49:13.537Z,7.40
2019-04-23T04:09:34.274Z,7.60
2019-04-23T04:19:40.043Z,7.80
2019-04-23T04:30:04.040Z,8.00
2019-04-23T04:40:06.700Z,7.90
2019-04-23T04:50:06.507Z,7.70
2019-04-23T05:10:20.893Z,7.70
2019-04-23T05:20:20.450Z,7.90
2019-04-23T05:30:34.957Z,8.20
2019-04-23T05:40:37.508Z,8.40
2019-04-23T05:50:50.670Z,8.70
2019-04-23T06:10:57.196Z,9.40
2019-04-23T06:21:02.594Z,9.50
2019-04-23T06:31:06.451Z,9.90
2019-04-23T06:41:23.665Z,10.50
2019-04-23T06:51:33.139Z,11.10
2019-04-23T07:01:30.193Z,11.60
2019-04-23T07:11:43.012Z,12.10
2019-04-23T07:21:52.570Z,12.60
2019-04-23T08:02:50.012Z,15.00
2019-04-23T08:12:42.483Z,15.50
2019-04-23T08:22:48.025Z,16.00
2019-04-23T08:32:57.406Z,16.00
2019-04-23T08:53:37.761Z,16.50
2019-04-23T09:03:34.570Z,16.40
2019-04-23T09:13:53.543Z,16.80
2019-04-23T09:23:54.151Z,17.20
2019-04-23T09:34:05.222Z,17.20
2019-04-23T09:44:51.077Z,17.30
2019-04-23T09:54:32.207Z,18.00
2019-04-23T10:04:23.546Z,18.60
2019-04-23T10:14:18.628Z,19.10
2019-04-23T10:24:25.309Z,19.20
2019-04-23T10:34:44.090Z,19.40
2019-04-23T10:44:41.222Z,19.50
2019-04-23T10:55:13.937Z,19.70
2019-04-23T11:05:29.167Z,19.30
2019-04-23T11:15:44.236Z,19.30
2019-04-23T11:25:37.447Z,19.20
2019-04-23T11:36:09.317Z,19.20
2019-04-23T12:16:54.049Z,19.60
2019-04-23T12:26:49.966Z,19.60
2019-04-23T12:37:22.654Z,18.80
2019-04-23T12:47:18.766Z,18.70
2019-04-23T12:57:17.220Z,19.90
2019-04-23T13:07:38.227Z,19.90
2019-04-23T13:17:48.897Z,19.10
2019-04-23T13:48:06.937Z,17.20
2019-04-23T13:58:26.742Z,16.80
2019-04-23T14:08:33.731Z,16.90
2019-04-23T14:38:44.497Z,18.90
2019-04-23T14:49:11.949Z,17.80
2019-04-23T14:59:04.713Z,17.20
2019-04-23T15:09:27.543Z,16.80
2019-04-23T15:29:33.659Z,16.80
2019-04-23T15:39:56.644Z,16.80
2019-04-23T15:50:10.825Z,16.70
2019-04-23T16:10:17.696Z,16.50
2019-04-23T16:20:33.399Z,16.30
2019-04-23T16:31:24.102Z,16.20
2019-04-23T16:40:41.432Z,15.80
2019-04-23T17:01:05.463Z,15.40
2019-04-23T17:21:12.075Z,15.20
2019-04-23T17:41:50.053Z,15.00
2019-04-23T17:51:50.959Z,14.80
2019-04-23T18:02:27.348Z,14.60
2019-04-23T18:12:14.827Z,14.30
2019-04-23T18:22:25.290Z,14.00
2019-04-23T18:32:32.850Z,13.80
2019-04-23T18:42:40.390Z,13.40
2019-04-23T18:53:02.691Z,13.00
2019-04-23T19:03:01.195Z,12.70
2019-04-23T19:13:18.671Z,12.60
2019-04-23T19:23:25.718Z,12.50
2019-04-23T19:33:41.919Z,12.10
2019-04-23T19:53:57.685Z,11.60
2019-04-23T20:03:56.082Z,11.50
2019-04-23T20:13:58.977Z,11.40
2019-04-23T20:24:08.573Z,11.30
2019-04-23T20:44:44.977Z,11.40
2019-04-23T20:54:42.386Z,11.50
2019-04-23T21:04:47.470Z,11.60
2019-04-23T21:14:57.558Z,11.70
2019-04-23T21:45:04.826Z,11.30
2019-04-23T21:55:14.761Z,11.40
2019-04-23T22:05:40.055Z,11.50
2019-04-23T22:25:56.966Z,11.60
2019-04-23T22:36:04.580Z,11.60
2019-04-23T22:56:05.377Z,11.60
2019-04-23T23:16:23.318Z,11.50
2019-04-23T23:26:33.683Z,11.60
2019-04-23T23:37:19.152Z,11.60
2019-04-23T23:47:14.687Z,11.50
2019-04-23T23:57:18.246Z,11.30
